Jack Odom — WDC6519 — position and weather

sailwx.info

Track history (hours):
 
Tides and Currents Weather Stations Pressure Air Temp Water Temp Dewpoint Dewpoint Depression Visibility Wind Speed Wind Dir Waves Ship Positions

Jack Odom

Owner: American Commercial Lines LLC, Jeffersonville, IN. More information available from US FCC via Universal Licensing System and Coast Guard Vessel Documentation Center.

Last reported at 2017-Nov-08 17:43 UTC. Time now 2017-Nov-20 18:55 UTC.
Position N 32°40' W 091°08'.
Warning: this ship's position is 12 days out of date.

Length 34 m; draft 2.6 m.

Type: . MMSI: 367057420.

Date/timePositionNaut miles runAvg speedWind from/ knotsBaromVisibWave heightAir tempDewpointWater temp
2017-Nov-08 17:43N 32°40' W 091°08'1 3.5
2017-Nov-08 17:28N 32°39' W 091°09'2 3.5
2017-Nov-08 17:00N 32°38' W 091°09'1 2.0
2017-Nov-08 16:30N 32°37' W 091°09'2 3.1
2017-Nov-08 16:00N 32°36' W 091°08'2 4.5
2017-Nov-08 15:30N 32°34' W 091°06'2 3.5
2017-Nov-08 15:00N 32°32' W 091°06'2 4.5
2017-Nov-08 14:30N 32°30' W 091°07'2 4.5
2017-Nov-08 14:00N 32°28' W 091°06'2 4.8
2017-Nov-08 13:30N 32°27' W 091°04'2 4.5
2017-Nov-08 13:00N 32°26' W 091°01'2 3.9
2017-Nov-08 12:30N 32°25' W 090°60'2 3.8
2017-Nov-08 12:00N 32°23' W 091°00'2 3.9
2017-Nov-08 11:30N 32°21' W 090°59'2 4.8
2017-Nov-08 11:00N 32°21' W 090°56'2 4.0
2017-Nov-08 10:30N 32°20' W 090°54'2 4.0
2017-Nov-08 10:00N 32°18' W 090°55'2 3.2
2017-Nov-08 09:30N 32°17' W 090°56'2 4.4
2017-Nov-08 09:00N 32°16' W 090°58'2 3.7
2017-Nov-08 08:30N 32°14' W 090°59'2 4.5
2017-Nov-08 08:00N 32°12' W 090°59'2 4.2
2017-Nov-08 07:30N 32°10' W 091°00'2 4.1
2017-Nov-08 07:00N 32°08' W 091°01'2 3.6
2017-Nov-08 06:29N 32°07' W 091°03'3 3.8
2017-Nov-08 05:39N 32°08' W 091°07'1 3.9
2017-Nov-08 05:30N 32°07' W 091°06'  
2017-Nov-04 10:34N 29°51' W 091°55'2 4.4
2017-Nov-04 10:02N 29°50' W 091°57'0 4.6
2017-Nov-04 10:00N 29°50' W 091°57'2 4.6
2017-Nov-04 09:30N 29°50' W 092°00'1 1.8
2017-Nov-04 09:00N 29°49' W 092°01'0 0.0
2017-Nov-04 08:30N 29°49' W 092°01'0 0.0
2017-Nov-04 08:00N 29°49' W 092°01'0 0.1
2017-Nov-04 07:30N 29°49' W 092°01'0 0.2
2017-Nov-04 07:00N 29°49' W 092°01'0 0.1
2017-Nov-04 06:30N 29°49' W 092°01'1 1.8
2017-Nov-04 06:00N 29°49' W 092°02'2 4.5
2017-Nov-04 05:30N 29°48' W 092°05'2 4.0
2017-Nov-04 05:00N 29°48' W 092°07'2 3.8
2017-Nov-04 04:30N 29°47' W 092°09'2 3.3
2017-Nov-04 04:00N 29°47' W 092°11'2 3.4
2017-Nov-04 03:30N 29°47' W 092°12'1 1.5
2017-Nov-04 03:00N 29°47' W 092°13'0 0.0
2017-Nov-04 02:30N 29°47' W 092°13'0 0.0
2017-Nov-04 02:00N 29°47' W 092°13'0 0.3
2017-Nov-04 01:30N 29°48' W 092°13'0 0.8
2017-Nov-04 01:00N 29°48' W 092°14'2 4.0
2017-Nov-04 00:30N 29°49' W 092°16'2 4.3
2017-Nov-04 00:00N 29°50' W 092°18'39 4.3
2017-Nov-03 15:06N 29°56' W 093°02'0 4.3
2017-Nov-03 15:00N 29°56' W 093°02'2 4.0
2017-Nov-03 14:30N 29°56' W 093°05'2 3.6
2017-Nov-03 14:00N 29°56' W 093°07'2 4.1
2017-Nov-03 13:30N 29°56' W 093°09'2 3.9
2017-Nov-03 13:00N 29°57' W 093°11'2 4.3
2017-Nov-03 12:30N 29°59' W 093°12'2 4.0
2017-Nov-03 12:00N 30°01' W 093°14'2 3.8
2017-Nov-03 11:30N 30°02' W 093°15'2 3.7
2017-Nov-03 11:00N 30°04' W 093°16'2 4.0
2017-Nov-03 10:30N 30°05' W 093°18'1 1.6
2017-Nov-03 10:00N 30°06' W 093°18'0 0.2
2017-Nov-03 09:30N 30°06' W 093°18'0 0.0
2017-Nov-03 09:00N 30°06' W 093°18'0 0.0
2017-Nov-03 08:30N 30°06' W 093°18'1 1.5
2017-Nov-03 08:00N 30°06' W 093°19'2 3.0
2017-Nov-03 07:30N 30°07' W 093°20'1 1.9
2017-Nov-03 07:00N 30°08' W 093°20'0 0.0
2017-Nov-03 06:30N 30°08' W 093°20'0 0.1
2017-Nov-03 06:00N 30°08' W 093°20'0 0.9
2017-Nov-03 05:30N 30°08' W 093°19'0 0.1
2017-Nov-03 05:00N 30°08' W 093°19'0 0.0
2017-Nov-03 04:30N 30°08' W 093°19'0 0.0
2017-Nov-03 04:00N 30°08' W 093°19'0 0.0
2017-Nov-03 03:30N 30°08' W 093°19'0 0.0
2017-Nov-03 03:00N 30°08' W 093°19'0 0.0
2017-Nov-03 02:30N 30°08' W 093°19'0 0.1
2017-Nov-03 02:00N 30°08' W 093°19'0 0.0
2017-Nov-03 01:30N 30°08' W 093°19'0 0.0
2017-Nov-03 01:00N 30°08' W 093°19'0 0.0
2017-Nov-03 00:30N 30°08' W 093°19'0 0.0
2017-Nov-03 00:00N 30°08' W 093°19'0 0.0
2017-Nov-02 23:30N 30°08' W 093°19'0 0.0
2017-Nov-02 23:00N 30°08' W 093°19'0 0.0
2017-Nov-02 22:30N 30°08' W 093°19'0 0.0
2017-Nov-02 22:00N 30°08' W 093°19'0 0.0
2017-Nov-02 21:30N 30°08' W 093°19'0 0.0
2017-Nov-02 21:00N 30°08' W 093°19'0 0.0
2017-Nov-02 20:30N 30°08' W 093°19'0 0.0
2017-Nov-02 20:00N 30°08' W 093°19'0 0.0
2017-Nov-02 19:30N 30°08' W 093°19'0 0.0
2017-Nov-02 19:00N 30°08' W 093°19'0 0.0
2017-Nov-02 18:30N 30°08' W 093°19'0 0.0
2017-Nov-02 18:00N 30°08' W 093°19'0 0.0
2017-Nov-02 17:30N 30°08' W 093°19'0 0.0
2017-Nov-02 17:00N 30°08' W 093°19'0 0.0
2017-Nov-02 16:30N 30°08' W 093°19'0 0.0
2017-Nov-02 16:00N 30°08' W 093°19'0 0.0
2017-Nov-02 15:29N 30°08' W 093°19'0 0.0
2017-Nov-02 15:00N 30°08' W 093°19'0 0.0
2017-Nov-02 14:30N 30°08' W 093°19'0 0.0
2017-Nov-02 14:00N 30°08' W 093°19'0 0.0
2017-Nov-02 13:30N 30°08' W 093°19'0 0.0
2017-Nov-02 12:59N 30°08' W 093°19'0 0.0
2017-Nov-02 12:30N 30°08' W 093°19'0 0.0
2017-Nov-02 12:00N 30°08' W 093°19'0 0.0
2017-Nov-02 11:30N 30°08' W 093°19'0 0.0
2017-Nov-02 11:00N 30°08' W 093°19'0 0.0
2017-Nov-02 10:30N 30°08' W 093°19'0 0.0
2017-Nov-02 10:00N 30°08' W 093°19'0 0.0
2017-Nov-02 09:30N 30°08' W 093°19'0 0.0
2017-Nov-02 09:00N 30°08' W 093°19'0 0.0
2017-Nov-02 08:30N 30°08' W 093°19'0 0.0
2017-Nov-02 08:00N 30°08' W 093°19'0 0.0
2017-Nov-02 07:30N 30°08' W 093°19'0 0.0
2017-Nov-02 07:00N 30°08' W 093°19'0 0.0
2017-Nov-02 06:30N 30°08' W 093°19'0 0.1
2017-Nov-02 06:00N 30°08' W 093°19'1 2.7
2017-Nov-02 05:30N 30°07' W 093°20'2 4.4
2017-Nov-02 05:00N 30°05' W 093°20'2 3.9
2017-Nov-02 04:30N 30°04' W 093°22'0 0.6
2017-Nov-02 04:00N 30°04' W 093°22'1 1.5
2017-Nov-02 03:30N 30°04' W 093°21'0 0.0
2017-Nov-02 03:00N 30°04' W 093°21'0 0.0
2017-Nov-02 02:30N 30°04' W 093°21'0 0.0
2017-Nov-02 02:00N 30°04' W 093°21'0 0.0
2017-Nov-02 01:30N 30°04' W 093°21'0 0.0
2017-Nov-02 01:00N 30°04' W 093°21'0 0.0
2017-Nov-02 00:30N 30°04' W 093°21'0 0.0
2017-Nov-02 00:00N 30°04' W 093°21'0 0.0
2017-Nov-01 23:30N 30°04' W 093°21'0 0.0
2017-Nov-01 23:00N 30°04' W 093°21'0 0.0
2017-Nov-01 22:30N 30°04' W 093°21'0 0.0
2017-Nov-01 22:00N 30°04' W 093°21'0 0.0
2017-Nov-01 21:30N 30°04' W 093°21'0 0.0
2017-Nov-01 21:00N 30°04' W 093°21'1 1.4
2017-Nov-01 20:30N 30°04' W 093°22'0 0.3
2017-Nov-01 20:00N 30°04' W 093°22'0 0.0
2017-Nov-01 19:30N 30°04' W 093°22'0 0.0
2017-Nov-01 19:00N 30°04' W 093°22'0 0.0
2017-Nov-01 18:30N 30°04' W 093°22'8 0.5
2017-Nov-01 02:00N 30°04' W 093°31'  
Track history (hours):
 
Tides and Currents Weather Stations Pressure Air Temp Water Temp Dewpoint Dewpoint Depression Visibility Wind Speed Wind Dir Waves Ship Positions

Jack Odom

Owner: American Commercial Lines LLC, Jeffersonville, IN. More information available from US FCC via Universal Licensing System and Coast Guard Vessel Documentation Center.

Last reported at 2017-Nov-08 17:43 UTC. Time now 2017-Nov-20 18:55 UTC.
Position N 32°40' W 091°08'.
Warning: this ship's position is 12 days out of date.

Length 34 m; draft 2.6 m.

Type: . MMSI: 367057420.

Date/timePositionNaut miles runAvg speedWind from/ knotsBaromVisibWave heightAir tempDewpointWater temp
2017-Nov-08 17:43N 32°40' W 091°08'1 3.5
2017-Nov-08 17:28N 32°39' W 091°09'2 3.5
2017-Nov-08 17:00N 32°38' W 091°09'1 2.0
2017-Nov-08 16:30N 32°37' W 091°09'2 3.1
2017-Nov-08 16:00N 32°36' W 091°08'2 4.5
2017-Nov-08 15:30N 32°34' W 091°06'2 3.5
2017-Nov-08 15:00N 32°32' W 091°06'2 4.5
2017-Nov-08 14:30N 32°30' W 091°07'2 4.5
2017-Nov-08 14:00N 32°28' W 091°06'2 4.8
2017-Nov-08 13:30N 32°27' W 091°04'2 4.5
2017-Nov-08 13:00N 32°26' W 091°01'2 3.9
2017-Nov-08 12:30N 32°25' W 090°60'2 3.8
2017-Nov-08 12:00N 32°23' W 091°00'2 3.9
2017-Nov-08 11:30N 32°21' W 090°59'2 4.8
2017-Nov-08 11:00N 32°21' W 090°56'2 4.0
2017-Nov-08 10:30N 32°20' W 090°54'2 4.0
2017-Nov-08 10:00N 32°18' W 090°55'2 3.2
2017-Nov-08 09:30N 32°17' W 090°56'2 4.4
2017-Nov-08 09:00N 32°16' W 090°58'2 3.7
2017-Nov-08 08:30N 32°14' W 090°59'2 4.5
2017-Nov-08 08:00N 32°12' W 090°59'2 4.2
2017-Nov-08 07:30N 32°10' W 091°00'2 4.1
2017-Nov-08 07:00N 32°08' W 091°01'2 3.6
2017-Nov-08 06:29N 32°07' W 091°03'3 3.8
2017-Nov-08 05:39N 32°08' W 091°07'1 3.9
2017-Nov-08 05:30N 32°07' W 091°06'  
2017-Nov-04 10:34N 29°51' W 091°55'2 4.4
2017-Nov-04 10:02N 29°50' W 091°57'0 4.6
2017-Nov-04 10:00N 29°50' W 091°57'2 4.6
2017-Nov-04 09:30N 29°50' W 092°00'1 1.8
2017-Nov-04 09:00N 29°49' W 092°01'0 0.0
2017-Nov-04 08:30N 29°49' W 092°01'0 0.0
2017-Nov-04 08:00N 29°49' W 092°01'0 0.1
2017-Nov-04 07:30N 29°49' W 092°01'0 0.2
2017-Nov-04 07:00N 29°49' W 092°01'0 0.1
2017-Nov-04 06:30N 29°49' W 092°01'1 1.8
2017-Nov-04 06:00N 29°49' W 092°02'2 4.5
2017-Nov-04 05:30N 29°48' W 092°05'2 4.0
2017-Nov-04 05:00N 29°48' W 092°07'2 3.8
2017-Nov-04 04:30N 29°47' W 092°09'2 3.3
2017-Nov-04 04:00N 29°47' W 092°11'2 3.4
2017-Nov-04 03:30N 29°47' W 092°12'1 1.5
2017-Nov-04 03:00N 29°47' W 092°13'0 0.0
2017-Nov-04 02:30N 29°47' W 092°13'0 0.0
2017-Nov-04 02:00N 29°47' W 092°13'0 0.3
2017-Nov-04 01:30N 29°48' W 092°13'0 0.8
2017-Nov-04 01:00N 29°48' W 092°14'2 4.0
2017-Nov-04 00:30N 29°49' W 092°16'2 4.3
2017-Nov-04 00:00N 29°50' W 092°18'39 4.3
2017-Nov-03 15:06N 29°56' W 093°02'0 4.3
2017-Nov-03 15:00N 29°56' W 093°02'2 4.0
2017-Nov-03 14:30N 29°56' W 093°05'2 3.6
2017-Nov-03 14:00N 29°56' W 093°07'2 4.1
2017-Nov-03 13:30N 29°56' W 093°09'2 3.9
2017-Nov-03 13:00N 29°57' W 093°11'2 4.3
2017-Nov-03 12:30N 29°59' W 093°12'2 4.0
2017-Nov-03 12:00N 30°01' W 093°14'2 3.8
2017-Nov-03 11:30N 30°02' W 093°15'2 3.7
2017-Nov-03 11:00N 30°04' W 093°16'2 4.0
2017-Nov-03 10:30N 30°05' W 093°18'1 1.6
2017-Nov-03 10:00N 30°06' W 093°18'0 0.2
2017-Nov-03 09:30N 30°06' W 093°18'0 0.0
2017-Nov-03 09:00N 30°06' W 093°18'0 0.0
2017-Nov-03 08:30N 30°06' W 093°18'1 1.5
2017-Nov-03 08:00N 30°06' W 093°19'2 3.0
2017-Nov-03 07:30N 30°07' W 093°20'1 1.9
2017-Nov-03 07:00N 30°08' W 093°20'0 0.0
2017-Nov-03 06:30N 30°08' W 093°20'0 0.1
2017-Nov-03 06:00N 30°08' W 093°20'0 0.9
2017-Nov-03 05:30N 30°08' W 093°19'0 0.1
2017-Nov-03 05:00N 30°08' W 093°19'0 0.0
2017-Nov-03 04:30N 30°08' W 093°19'0 0.0
2017-Nov-03 04:00N 30°08' W 093°19'0 0.0
2017-Nov-03 03:30N 30°08' W 093°19'0 0.0
2017-Nov-03 03:00N 30°08' W 093°19'0 0.0
2017-Nov-03 02:30N 30°08' W 093°19'0 0.1
2017-Nov-03 02:00N 30°08' W 093°19'0 0.0
2017-Nov-03 01:30N 30°08' W 093°19'0 0.0
2017-Nov-03 01:00N 30°08' W 093°19'0 0.0
2017-Nov-03 00:30N 30°08' W 093°19'0 0.0
2017-Nov-03 00:00N 30°08' W 093°19'0 0.0
2017-Nov-02 23:30N 30°08' W 093°19'0 0.0
2017-Nov-02 23:00N 30°08' W 093°19'0 0.0
2017-Nov-02 22:30N 30°08' W 093°19'0 0.0
2017-Nov-02 22:00N 30°08' W 093°19'0 0.0
2017-Nov-02 21:30N 30°08' W 093°19'0 0.0
2017-Nov-02 21:00N 30°08' W 093°19'0 0.0
2017-Nov-02 20:30N 30°08' W 093°19'0 0.0
2017-Nov-02 20:00N 30°08' W 093°19'0 0.0
2017-Nov-02 19:30N 30°08' W 093°19'0 0.0
2017-Nov-02 19:00N 30°08' W 093°19'0 0.0
2017-Nov-02 18:30N 30°08' W 093°19'0 0.0
2017-Nov-02 18:00N 30°08' W 093°19'0 0.0
2017-Nov-02 17:30N 30°08' W 093°19'0 0.0
2017-Nov-02 17:00N 30°08' W 093°19'0 0.0
2017-Nov-02 16:30N 30°08' W 093°19'0 0.0
2017-Nov-02 16:00N 30°08' W 093°19'0 0.0
2017-Nov-02 15:29N 30°08' W 093°19'0 0.0
2017-Nov-02 15:00N 30°08' W 093°19'0 0.0
2017-Nov-02 14:30N 30°08' W 093°19'0 0.0
2017-Nov-02 14:00N 30°08' W 093°19'0 0.0
2017-Nov-02 13:30N 30°08' W 093°19'0 0.0
2017-Nov-02 12:59N 30°08' W 093°19'0 0.0
2017-Nov-02 12:30N 30°08' W 093°19'0 0.0
2017-Nov-02 12:00N 30°08' W 093°19'0 0.0
2017-Nov-02 11:30N 30°08' W 093°19'0 0.0
2017-Nov-02 11:00N 30°08' W 093°19'0 0.0
2017-Nov-02 10:30N 30°08' W 093°19'0 0.0
2017-Nov-02 10:00N 30°08' W 093°19'0 0.0
2017-Nov-02 09:30N 30°08' W 093°19'0 0.0
2017-Nov-02 09:00N 30°08' W 093°19'0 0.0
2017-Nov-02 08:30N 30°08' W 093°19'0 0.0
2017-Nov-02 08:00N 30°08' W 093°19'0 0.0
2017-Nov-02 07:30N 30°08' W 093°19'0 0.0
2017-Nov-02 07:00N 30°08' W 093°19'0 0.0
2017-Nov-02 06:30N 30°08' W 093°19'0 0.1
2017-Nov-02 06:00N 30°08' W 093°19'1 2.7
2017-Nov-02 05:30N 30°07' W 093°20'2 4.4
2017-Nov-02 05:00N 30°05' W 093°20'2 3.9
2017-Nov-02 04:30N 30°04' W 093°22'0 0.6
2017-Nov-02 04:00N 30°04' W 093°22'1 1.5
2017-Nov-02 03:30N 30°04' W 093°21'0 0.0
2017-Nov-02 03:00N 30°04' W 093°21'0 0.0
2017-Nov-02 02:30N 30°04' W 093°21'0 0.0
2017-Nov-02 02:00N 30°04' W 093°21'0 0.0
2017-Nov-02 01:30N 30°04' W 093°21'0 0.0
2017-Nov-02 01:00N 30°04' W 093°21'0 0.0
2017-Nov-02 00:30N 30°04' W 093°21'0 0.0
2017-Nov-02 00:00N 30°04' W 093°21'0 0.0
2017-Nov-01 23:30N 30°04' W 093°21'0 0.0
2017-Nov-01 23:00N 30°04' W 093°21'0 0.0
2017-Nov-01 22:30N 30°04' W 093°21'0 0.0
2017-Nov-01 22:00N 30°04' W 093°21'0 0.0
2017-Nov-01 21:30N 30°04' W 093°21'0 0.0
2017-Nov-01 21:00N 30°04' W 093°21'1 1.4
2017-Nov-01 20:30N 30°04' W 093°22'0 0.3
2017-Nov-01 20:00N 30°04' W 093°22'0 0.0
2017-Nov-01 19:30N 30°04' W 093°22'0 0.0
2017-Nov-01 19:00N 30°04' W 093°22'0 0.0
2017-Nov-01 18:30N 30°04' W 093°22'8 0.5
2017-Nov-01 02:00N 30°04' W 093°31'  

Dump ship's entire track history